Airfield :
LOGIN :

Register | Disclaimer

   EN    FR    IT 

 










Legend :    VFR   Marginal VFR   IFR   Intensive IFR   Very Intensive IFR
Visi :
Ceiling :
>= 8 km
>= 3000ft
5 to 8 km
1000 to 3000 ft
1500m to 5 km
500 to 1000 ft
800 to 1500m
200 to 500 ft
< 800m
< 200 ft
Symbols :   Thunderstorms  Fog  Heavy snow  Heavy precipitations  Wind > 20 kt
SIGMETs :     Misc.  Thunderstorms  Icing  Turbulence  Mountain Waves  Volcanic Ashes







- Airport Elevation : 202 ft
- IATA code : LGW
- Download approach charts


EGKK - London Gatwick

CURRENT METAR :
  • 300050Z 23005KT 190V250 9000 BKN006 15/14 Q1013

EXPIRED METARs :
  • 300020Z 22006KT 9000 BKN008 15/14 Q1012
  • 292350Z 23005KT 9000 BKN007 16/14 Q1012
  • 292320Z 23006KT 8000 FEW004 BKN007 16/15 Q1013
  • 292250Z 23007KT 6000 BKN004 16/15 Q1013
  • 292220Z 21005KT 4300 BR BKN003 16/15 Q1013

TAF TAF EGKK
Valid from the 30 at 00:00 until the 31 at 06:00 UTC


292254Z 3000/3106 20009KT 4000 BR BKN004
TEMPO 3000/3003 9999 NSW BKN005
BECMG 3003/3006 9999 NSW FEW005 SCT015
BECMG 3006/3009 26010KT
No reported NOTAMs for that airfield.



MET'MAP, your aeronautical weather chart ! - Copyright ORBIFLY December 2007 - Disclaimer

ORBIFLY MET'MAP TEAM :

Programming & Development : Alexandra Zaïnal
Concept & Development : Baudouin d'Aumeries
Co-Development & Prog : Marc-Olivier Méhu
Technical & hardware support : Manuel Goepfert

Contact : metmap@orbifly.com




SOURCES & CREDITS :

   NOAA